Time;durP1;ratioP1;P1;durP2;ratioP2;P2;SDS_P1;SDS_P2;PMS_P1;PMS_P2;Temp;Humidity;BMP_temperature;BMP_pressure;BME280_temperature;BME280_humidity;BME280_pressure;Samples;Min_cycle;Max_cycle;Signal;HPM_P1;HPM_P2
2022/08/07 00:00:49;;;;;;;5.90;2.83;;;;;;;14.28;66.73;100892.44;5047034;28;20060;-84
2022/08/07 00:03:14;;;;;;;5.25;2.88;;;;;;;14.46;66.07;100889.25;5046813;28;20051;-84
2022/08/07 00:05:40;;;;;;;5.85;3.17;;;;;;;14.31;66.93;100889.97;5046527;28;20064;-86
2022/08/07 00:08:08;;;;;;;6.03;2.35;;;;;;;14.26;66.38;100883.63;5027359;28;20036;-86
2022/08/07 00:10:34;;;;;;;6.68;3.00;;;;;;;14.33;66.54;100890.56;5046335;28;20488;-85
2022/08/07 00:13:03;;;;;;;7.47;3.30;;;;;;;14.32;66.82;100883.41;5047101;28;20029;-85
2022/08/07 00:15:30;;;;;;;9.82;2.88;;;;;;;14.48;66.80;100889.00;5047586;28;20144;-86
2022/08/07 00:17:55;;;;;;;5.05;2.78;;;;;;;14.48;66.79;100887.06;5046800;28;20029;-86
2022/08/07 00:20:20;;;;;;;6.22;2.60;;;;;;;14.64;66.03;100873.47;5047437;28;20413;-85
2022/08/07 00:22:46;;;;;;;5.57;2.30;;;;;;;14.70;65.45;100877.06;5047152;28;20082;-85
2022/08/07 00:25:14;;;;;;;9.98;3.10;;;;;;;14.50;65.58;100878.59;5046513;28;20044;-80
2022/08/07 00:27:39;;;;;;;4.50;1.98;;;;;;;14.41;66.29;100878.25;5045580;28;20120;-80
2022/08/07 00:30:08;;;;;;;4.93;2.33;;;;;;;14.51;65.99;100874.75;5045441;28;20048;-86
2022/08/07 00:32:33;;;;;;;6.60;2.42;;;;;;;14.56;66.01;100868.47;5047276;28;20040;-86
2022/08/07 00:34:58;;;;;;;7.85;2.85;;;;;;;14.56;66.18;100872.03;5047527;28;20041;-91
2022/08/07 00:37:27;;;;;;;6.75;2.70;;;;;;;14.47;65.46;100863.50;5047999;28;20037;-91
2022/08/07 00:39:53;;;;;;;5.32;2.75;;;;;;;14.40;66.36;100859.31;5047595;28;20040;-82
2022/08/07 00:42:19;;;;;;;4.30;2.45;;;;;;;14.35;66.62;100865.59;5046699;28;20416;-82
2022/08/07 00:44:44;;;;;;;4.97;2.83;;;;;;;14.36;66.58;100862.56;5047707;28;20642;-84
2022/08/07 00:47:10;;;;;;;8.30;2.60;;;;;;;14.41;67.27;100855.47;5046662;28;20137;-84
2022/08/07 00:49:35;;;;;;;7.63;2.67;;;;;;;14.23;67.59;100865.78;5045241;28;20072;-90
2022/08/07 00:52:00;;;;;;;6.95;2.80;;;;;;;14.07;68.46;100860.19;5046859;28;20036;-91
2022/08/07 00:54:25;;;;;;;3.83;2.10;;;;;;;14.14;68.73;100861.88;5045974;28;20442;-80
2022/08/07 00:56:51;;;;;;;7.67;3.77;;;;;;;14.12;69.17;100865.69;5044961;28;20323;-80
2022/08/07 00:59:17;;;;;;;5.75;3.47;;;;;;;14.15;69.07;100849.81;5043983;28;20787;-85
2022/08/07 01:01:43;;;;;;;5.90;2.80;;;;;;;14.19;68.36;100856.44;5047103;28;20245;-85
2022/08/07 01:04:08;;;;;;;3.78;2.08;;;;;;;14.21;68.34;100854.25;5050539;28;20682;-85
2022/08/07 01:06:34;;;;;;;4.00;1.90;;;;;;;14.30;67.23;100851.84;5049819;28;20421;-80
2022/08/07 01:09:01;;;;;;;4.35;1.92;;;;;;;14.27;67.65;100857.84;5048101;28;20226;-80
2022/08/07 01:11:27;;;;;;;8.90;2.72;;;;;;;14.33;67.37;100845.81;5048770;28;20040;-84
2022/08/07 01:13:53;;;;;;;5.05;2.63;;;;;;;14.24;67.71;100848.22;5049976;28;20052;-84
2022/08/07 01:16:18;;;;;;;4.18;2.42;;;;;;;14.29;67.95;100847.44;5050205;28;20033;-86
2022/08/07 01:18:44;;;;;;;5.68;2.55;;;;;;;14.29;68.26;100851.03;5049704;28;20033;-86
2022/08/07 01:21:14;;;;;;;6.10;3.65;;;;;;;14.22;69.21;100853.16;5049254;28;20029;-90
2022/08/07 01:23:42;;;;;;;4.97;2.42;;;;;;;14.31;68.54;100848.84;5050751;28;20044;-90
2022/08/07 01:26:08;;;;;;;5.40;2.53;;;;;;;14.18;68.96;100843.78;5050177;28;20047;-83
2022/08/07 01:28:35;;;;;;;5.68;2.83;;;;;;;14.21;68.50;100843.28;5049084;28;20029;-84
2022/08/07 01:31:04;;;;;;;8.32;2.63;;;;;;;14.02;69.18;100849.16;5050333;28;20400;-90
2022/08/07 01:33:33;;;;;;;6.65;2.97;;;;;;;14.22;68.26;100845.75;5050268;28;20029;-91
2022/08/07 01:35:59;;;;;;;6.20;2.95;;;;;;;14.29;67.83;100837.31;5050341;28;20043;-90
2022/08/07 01:38:28;;;;;;;5.43;2.60;;;;;;;14.23;67.87;100835.63;5049791;28;20029;-91
2022/08/07 01:40:57;;;;;;;4.85;2.47;;;;;;;14.20;68.00;100833.38;5049889;28;20029;-85
2022/08/07 01:43:23;;;;;;;9.57;2.80;;;;;;;14.19;67.46;100837.22;5049097;28;20060;-86
2022/08/07 01:45:52;;;;;;;7.70;2.42;;;;;;;14.18;67.34;100841.03;5049360;28;20033;-79
2022/08/07 01:48:18;;;;;;;5.28;2.50;;;;;;;14.02;67.60;100838.19;5046164;28;20289;-80
2022/08/07 01:50:48;;;;;;;5.68;2.33;;;;;;;14.14;67.63;100831.72;5047824;28;20750;-83
2022/08/07 01:53:18;;;;;;;5.45;2.42;;;;;;;14.15;67.89;100833.34;5049234;28;20025;-83
2022/08/07 01:55:52;;;;;;;5.35;3.25;;;;;;;14.07;67.59;100835.50;5049129;28;20059;-85
2022/08/07 01:58:20;;;;;;;4.95;2.22;;;;;;;14.09;67.76;100830.59;5048991;28;20484;-85
2022/08/07 02:00:51;;;;;;;6.70;2.53;;;;;;;14.06;67.75;100833.84;5049166;28;20037;-83
2022/08/07 02:03:20;;;;;;;4.53;2.42;;;;;;;14.02;67.64;100829.97;5048581;28;20032;-83
2022/08/07 02:05:51;;;;;;;6.80;3.67;;;;;;;13.92;68.16;100835.38;5049484;28;20505;-86
2022/08/07 02:08:20;;;;;;;5.13;2.92;;;;;;;13.88;68.52;100835.06;5048926;28;20504;-86
2022/08/07 02:10:52;;;;;;;4.40;2.17;;;;;;;13.93;68.46;100840.59;5048562;28;20052;-80
2022/08/07 02:13:20;;;;;;;6.53;2.97;;;;;;;13.75;68.59;100826.19;5046457;28;20033;-80
2022/08/07 02:15:47;;;;;;;6.53;3.08;;;;;;;13.66;68.41;100827.75;5049078;28;20049;-90
2022/08/07 02:18:14;;;;;;;4.07;2.17;;;;;;;13.65;68.83;100837.88;5047102;28;20040;-90
2022/08/07 02:20:42;;;;;;;9.00;3.00;;;;;;;13.57;68.54;100830.13;5049297;28;20086;-85
2022/08/07 02:23:09;;;;;;;5.05;2.58;;;;;;;13.63;69.45;100825.53;5049644;28;20036;-89
2022/08/07 02:25:37;;;;;;;7.03;3.65;;;;;;;13.60;69.37;100824.16;5049738;28;20040;-91
2022/08/07 02:28:03;;;;;;;4.65;2.58;;;;;;;13.70;69.15;100819.84;5049467;28;20066;-91
2022/08/07 02:30:29;;;;;;;4.65;2.20;;;;;;;13.82;68.74;100823.22;5048704;28;20150;-90
2022/08/07 02:32:56;;;;;;;5.22;2.90;;;;;;;13.70;69.09;100828.88;5048689;28;20439;-90
2022/08/07 02:35:23;;;;;;;4.78;2.30;;;;;;;13.83;68.26;100822.13;5048959;28;20468;-90
2022/08/07 02:37:49;;;;;;;5.55;2.10;;;;;;;13.96;67.94;100822.78;5048472;28;20025;-83
2022/08/07 02:40:15;;;;;;;3.28;1.95;;;;;;;14.04;67.90;100818.72;5048011;28;20037;-83
2022/08/07 02:42:41;;;;;;;4.95;1.75;;;;;;;14.15;66.75;100819.66;5047558;28;20059;-80
2022/08/07 02:45:11;;;;;;;5.43;2.60;;;;;;;14.04;67.02;100826.97;5047010;28;20045;-80
2022/08/07 02:47:36;;;;;;;4.97;2.08;;;;;;;13.99;67.32;100825.03;5046838;28;20534;-85
2022/08/07 02:50:03;;;;;;;3.78;2.20;;;;;;;13.98;67.20;100818.72;5047553;28;20120;-85
2022/08/07 02:52:33;;;;;;;3.80;2.30;;;;;;;13.92;67.37;100814.28;5047756;28;20505;-82
2022/08/07 02:55:03;;;;;;;4.28;2.05;;;;;;;14.08;67.14;100814.38;5047597;28;20037;-82
2022/08/07 02:57:30;;;;;;;6.18;2.60;;;;;;;13.81;67.43;100820.75;5048020;28;20036;-86
2022/08/07 02:59:58;;;;;;;7.30;2.20;;;;;;;13.83;68.00;100813.91;5047347;28;20492;-86
2022/08/07 03:02:24;;;;;;;5.65;2.65;;;;;;;13.72;68.04;100815.75;5047226;28;20033;-79
2022/08/07 03:04:53;;;;;;;6.75;2.50;;;;;;;13.59;68.45;100814.25;5045983;28;20581;-79
2022/08/07 03:07:19;;;;;;;4.63;2.03;;;;;;;13.60;68.64;100812.34;5046296;28;20074;-80
2022/08/07 03:09:45;;;;;;;4.80;2.72;;;;;;;13.70;68.43;100812.44;5045771;28;20071;-79
2022/08/07 03:12:11;;;;;;;5.97;2.50;;;;;;;13.70;68.01;100811.63;5045128;28;20028;-86
2022/08/07 03:14:37;;;;;;;5.70;2.65;;;;;;;13.70;68.58;100817.09;5047764;28;20060;-85
2022/08/07 03:17:04;;;;;;;3.70;2.13;;;;;;;13.73;67.90;100811.91;5047717;28;20120;-90
2022/08/07 03:19:30;;;;;;;6.38;2.45;;;;;;;13.83;67.77;100813.91;5046358;28;20048;-89
2022/08/07 03:21:56;;;;;;;4.75;2.25;;;;;;;13.75;67.27;100811.69;5048290;28;20028;-90
2022/08/07 03:24:21;;;;;;;7.75;3.42;;;;;;;13.62;67.95;100811.00;5046609;28;20082;-89
2022/08/07 03:26:50;;;;;;;6.75;2.63;;;;;;;13.40;68.36;100816.53;5047918;28;20183;-82
2022/08/07 03:29:17;;;;;;;6.82;3.28;;;;;;;13.40;69.21;100809.09;5046260;28;20029;-82
2022/08/07 03:31:44;;;;;;;7.32;2.47;;;;;;;13.53;68.64;100818.00;5047084;28;20033;-83
2022/08/07 03:34:12;;;;;;;5.15;2.30;;;;;;;13.47;69.16;100813.56;5047064;28;20037;-83
2022/08/07 03:36:39;;;;;;;5.95;2.42;;;;;;;13.17;69.11;100811.06;5047923;28;20155;-81
2022/08/07 03:39:08;;;;;;;5.55;2.58;;;;;;;13.30;69.11;100814.50;5045485;28;20062;-80
2022/08/07 03:41:35;;;;;;;5.93;3.45;;;;;;;13.40;68.85;100809.09;5045905;28;20392;-83
2022/08/07 03:44:01;;;;;;;4.53;3.00;;;;;;;13.39;68.79;100807.47;5048515;28;20037;-83
2022/08/07 03:46:27;;;;;;;7.15;2.83;;;;;;;13.36;69.14;100797.03;5048244;28;20033;-84
2022/08/07 03:48:53;;;;;;;4.32;2.75;;;;;;;13.38;68.94;100805.00;5046439;28;20132;-84
2022/08/07 03:51:20;;;;;;;5.75;2.97;;;;;;;13.51;67.92;100810.03;5046788;28;20116;-83
2022/08/07 03:53:46;;;;;;;12.52;3.40;;;;;;;13.38;68.73;100808.53;5047142;28;20040;-84
2022/08/07 03:56:14;;;;;;;6.13;2.90;;;;;;;13.54;67.75;100803.25;5046776;28;20033;-83
2022/08/07 03:58:40;;;;;;;6.18;2.88;;;;;;;13.63;67.39;100800.84;5047318;28;20081;-90
2022/08/07 04:01:08;;;;;;;7.72;2.80;;;;;;;13.43;67.88;100797.66;5047829;28;20036;-90
2022/08/07 04:03:34;;;;;;;3.67;2.47;;;;;;;13.42;67.84;100795.97;5045540;28;20032;-79
2022/08/07 04:06:00;;;;;;;5.45;2.58;;;;;;;13.47;67.93;100791.63;5045016;28;20036;-79
2022/08/07 04:08:25;;;;;;;5.63;2.83;;;;;;;13.52;66.81;100798.03;5046028;28;20041;-85
2022/08/07 04:10:52;;;;;;;7.35;3.55;;;;;;;13.72;66.30;100796.56;5047078;28;20055;-85
2022/08/07 04:13:17;;;;;;;12.77;3.45;;;;;;;13.78;65.53;100791.97;5045709;28;20037;-82
2022/08/07 04:15:44;;;;;;;5.30;2.95;;;;;;;13.91;64.99;100792.59;5045385;28;20040;-82
2022/08/07 04:18:13;;;;;;;6.47;2.55;;;;;;;13.92;65.10;100791.50;5045173;28;20033;-90
2022/08/07 04:20:38;;;;;;;5.88;2.65;;;;;;;13.91;64.86;100792.59;5046295;28;20079;-90
2022/08/07 04:23:05;;;;;;;3.80;1.92;;;;;;;13.81;65.51;100794.16;5043603;28;20052;-79
2022/08/07 04:25:30;;;;;;;5.60;2.60;;;;;;;13.74;65.73;100793.56;5044009;28;20029;-80
2022/08/07 04:27:56;;;;;;;5.13;2.83;;;;;;;13.67;65.41;100801.19;5045622;28;20091;-90
2022/08/07 04:30:21;;;;;;;4.28;2.20;;;;;;;13.65;65.96;100809.66;5045855;28;20071;-91
2022/08/07 04:32:48;;;;;;;18.60;3.05;;;;;;;13.62;66.41;100807.44;5046665;28;20064;-87
2022/08/07 04:35:14;;;;;;;3.95;2.30;;;;;;;13.65;66.68;100802.25;5046144;28;20033;-89
2022/08/07 04:37:39;;;;;;;4.30;1.92;;;;;;;13.69;65.95;100802.56;5047567;28;20249;-82
2022/08/07 04:40:05;;;;;;;4.78;2.25;;;;;;;13.73;66.02;100805.63;5047901;28;20387;-82
2022/08/07 04:42:33;;;;;;;3.90;1.85;;;;;;;13.81;65.34;100804.31;5048238;28;20487;-85
2022/08/07 04:45:00;;;;;;;5.00;2.15;;;;;;;13.89;64.69;100807.38;5049117;28;20037;-85
2022/08/07 04:48:02;;;;;;;4.50;2.30;;;;;;;13.95;64.83;100812.94;5048477;28;20090;-85
2022/08/07 04:50:45;;;;;;;8.38;2.75;;;;;;;13.97;64.68;100810.75;5047777;28;20250;-85
2022/08/07 04:53:23;;;;;;;3.85;2.20;;;;;;;14.17;64.19;100809.25;5049572;28;20487;-89
2022/08/07 04:55:58;;;;;;;3.75;2.10;;;;;;;14.21;63.97;100810.38;5049676;28;20037;-89
2022/08/07 04:58:35;;;;;;;3.88;2.15;;;;;;;14.15;63.63;100823.22;5047531;28;20043;-79
2022/08/07 05:01:13;;;;;;;5.22;2.42;;;;;;;14.06;64.69;100813.81;5046802;28;20391;-81
2022/08/07 05:03:56;;;;;;;3.58;2.40;;;;;;;14.11;65.01;100811.97;5046954;28;20123;-79
2022/08/07 05:06:25;;;;;;;5.30;2.58;;;;;;;14.24;64.14;100807.91;5047025;28;20041;-79
2022/08/07 05:09:09;;;;;;;3.53;2.08;;;;;;;14.24;63.91;100812.56;5046842;28;20527;-79
2022/08/07 05:11:47;;;;;;;5.30;2.10;;;;;;;14.31;63.73;100812.34;5047274;28;20056;-90
2022/08/07 05:14:32;;;;;;;5.10;2.55;;;;;;;14.42;63.12;100811.31;5010750;28;1102239;-89
2022/08/07 05:17:01;;;;;;;2.83;1.63;;;;;;;14.49;63.33;100813.84;5050348;28;20055;-91
2022/08/07 05:19:33;;;;;;;4.32;2.05;;;;;;;14.58;63.44;100814.97;5049316;28;20072;-91
2022/08/07 05:22:00;;;;;;;3.80;1.55;;;;;;;14.57;63.10;100818.81;5050282;28;20048;-82
2022/08/07 05:24:28;;;;;;;3.53;1.73;;;;;;;14.75;62.30;100822.19;5049037;28;20056;-82
2022/08/07 05:26:57;;;;;;;4.55;2.75;;;;;;;14.83;61.91;100826.38;5049017;28;20104;-82
2022/08/07 05:29:24;;;;;;;4.43;2.00;;;;;;;14.81;61.39;100823.88;5048109;28;20124;-81
2022/08/07 05:31:51;;;;;;;10.50;1.98;;;;;;;14.88;61.53;100826.41;5048817;28;20037;-83
2022/08/07 05:34:18;;;;;;;3.63;1.98;;;;;;;14.86;61.76;100825.03;5049010;28;20086;-83
2022/08/07 05:36:52;;;;;;;5.07;2.03;;;;;;;14.98;61.46;100828.38;5049682;28;20504;-81
2022/08/07 05:39:20;;;;;;;4.40;2.13;;;;;;;14.96;62.00;100830.56;5047836;28;20325;-80
2022/08/07 05:41:47;;;;;;;4.47;1.77;;;;;;;15.05;62.22;100830.88;5045989;28;20075;-79
2022/08/07 05:44:16;;;;;;;4.90;2.72;;;;;;;15.12;62.15;100831.44;5044927;28;20068;-79
2022/08/07 05:46:42;;;;;;;3.47;1.92;;;;;;;15.07;63.12;100834.19;5048013;28;20036;-82
2022/08/07 05:49:08;;;;;;;5.25;1.80;;;;;;;15.13;62.37;100829.53;5047424;28;20065;-82
2022/08/07 05:51:34;;;;;;;4.57;1.65;;;;;;;15.26;62.26;100833.66;5048516;28;20099;-88
2022/08/07 05:54:01;;;;;;;3.20;1.55;;;;;;;15.27;63.23;100832.59;5050494;28;20045;-89
2022/08/07 05:56:27;;;;;;;4.05;1.95;;;;;;;15.36;61.79;100838.34;5048819;28;20032;-88
2022/08/07 05:58:53;;;;;;;3.50;1.40;;;;;;;15.41;61.60;100841.13;5049223;28;20040;-88
2022/08/07 06:01:19;;;;;;;4.97;1.40;;;;;;;15.58;61.24;100845.56;5050030;28;20400;-89
2022/08/07 06:03:49;;;;;;;17.88;2.38;;;;;;;15.63;61.11;100840.91;5054820;28;20043;-83
2022/08/07 06:06:15;;;;;;;3.58;1.60;;;;;;;15.73;61.71;100842.00;5048881;28;20037;-83
2022/08/07 06:08:42;;;;;;;5.15;1.77;;;;;;;15.72;61.91;100840.38;5048924;28;20033;-85
2022/08/07 06:11:07;;;;;;;3.88;1.20;;;;;;;15.78;61.60;100844.78;5049432;28;20483;-85
2022/08/07 06:13:35;;;;;;;3.03;1.73;;;;;;;15.79;61.95;100845.56;5047587;28;20057;-80
2022/08/07 06:16:02;;;;;;;3.35;1.80;;;;;;;15.84;61.68;100845.59;5047290;28;20063;-79
2022/08/07 06:18:30;;;;;;;4.10;1.50;;;;;;;15.90;62.34;100852.75;5046968;28;20119;-85
2022/08/07 06:20:58;;;;;;;3.10;1.48;;;;;;;15.94;61.78;100848.34;5048341;28;20033;-84
2022/08/07 06:23:23;;;;;;;5.82;2.22;;;;;;;15.91;61.41;100848.88;5049187;28;20029;-88
2022/08/07 06:25:49;;;;;;;2.47;1.23;;;;;;;16.02;62.24;100843.41;5049290;28;20042;-89
2022/08/07 06:28:15;;;;;;;3.65;1.50;;;;;;;16.04;61.44;100841.22;5048507;28;20546;-90
2022/08/07 06:30:41;;;;;;;4.85;2.00;;;;;;;16.16;60.60;100846.44;5049065;28;20067;-90
2022/08/07 06:33:07;;;;;;;2.80;1.42;;;;;;;16.15;61.52;100853.84;5046171;28;20029;-81
2022/08/07 06:35:34;;;;;;;4.03;1.65;;;;;;;16.13;62.52;100845.06;5047634;28;20202;-81
2022/08/07 06:37:59;;;;;;;3.90;2.17;;;;;;;16.20;61.93;100839.28;5048368;28;20040;-83
2022/08/07 06:40:27;;;;;;;2.53;1.33;;;;;;;16.30;60.76;100838.44;5047524;28;20040;-83
2022/08/07 06:42:55;;;;;;;2.83;1.65;;;;;;;16.36;61.55;100842.84;5046028;28;20029;-80
2022/08/07 06:45:22;;;;;;;4.60;1.60;;;;;;;16.44;61.07;100833.19;5047886;28;20424;-81
2022/08/07 06:47:47;;;;;;;5.05;1.92;;;;;;;16.48;62.06;100839.78;5047222;28;20542;-89
2022/08/07 06:50:13;;;;;;;5.15;1.70;;;;;;;16.52;61.45;100834.53;5049802;28;20091;-89
2022/08/07 06:52:43;;;;;;;3.85;1.60;;;;;;;16.59;62.03;100829.59;5044332;28;20555;-79
2022/08/07 06:55:12;;;;;;;7.60;2.42;;;;;;;16.68;60.41;100827.91;5026836;28;20034;-79
2022/08/07 06:57:38;;;;;;;3.95;1.48;;;;;;;16.71;60.43;100828.44;5026743;28;20278;-80
2022/08/07 07:00:05;;;;;;;4.38;1.63;;;;;;;16.75;60.51;100827.59;5040767;28;20544;-79
2022/08/07 07:02:33;;;;;;;3.72;1.65;;;;;;;16.77;60.65;100830.06;5046541;28;20029;-81
2022/08/07 07:04:59;;;;;;;3.63;1.38;;;;;;;16.84;60.80;100827.84;5047096;28;20541;-82
2022/08/07 07:07:24;;;;;;;3.75;1.70;;;;;;;16.86;60.21;100827.56;5046728;28;20028;-79
2022/08/07 07:09:50;;;;;;;3.95;2.25;;;;;;;16.90;60.49;100829.47;5044663;28;20124;-79
2022/08/07 07:12:34;;;;;;;3.88;1.35;;;;;;;16.97;60.12;100822.81;5046468;28;20502;-83
2022/08/07 07:15:13;;;;;;;5.32;1.42;;;;;;;17.00;61.61;100822.28;5046909;28;20053;-83
2022/08/07 07:17:56;;;;;;;4.57;1.38;;;;;;;17.04;60.29;100818.66;5046256;28;20125;-79
2022/08/07 07:20:35;;;;;;;5.65;1.40;;;;;;;17.04;60.41;100818.66;5044762;28;20140;-80
2022/08/07 07:23:01;;;;;;;5.68;1.80;;;;;;;17.18;59.93;100812.56;5046618;28;20132;-81
2022/08/07 07:25:27;;;;;;;2.22;1.60;;;;;;;17.21;60.17;100822.19;5046260;28;20116;-81
2022/08/07 07:28:01;;;;;;;2.55;1.38;;;;;;;17.21;59.32;100825.78;5046871;28;20098;-81
2022/08/07 07:30:35;;;;;;;2.45;1.30;;;;;;;17.26;59.58;100820.25;5046264;28;20044;-82
2022/08/07 07:33:01;;;;;;;2.90;1.48;;;;;;;17.28;59.80;100828.22;5045860;28;20051;-79
2022/08/07 07:35:28;;;;;;;3.97;1.52;;;;;;;17.39;59.55;100821.53;5045712;28;20029;-79
2022/08/07 07:37:55;;;;;;;8.18;2.10;;;;;;;17.40;59.73;100822.34;5046134;28;20041;-81
2022/08/07 07:40:22;;;;;;;3.55;2.00;;;;;;;17.52;59.20;100818.41;5045314;28;20029;-81
2022/08/07 07:42:53;;;;;;;3.78;1.48;;;;;;;17.47;59.94;100819.28;5046947;28;20180;-82
2022/08/07 07:45:22;;;;;;;6.68;2.28;;;;;;;17.55;59.39;100813.19;5046062;28;20075;-82
2022/08/07 07:47:51;;;;;;;4.72;1.85;;;;;;;17.64;59.56;100813.38;5044940;28;20029;-81
2022/08/07 07:50:19;;;;;;;3.53;1.95;;;;;;;17.62;59.28;100816.41;5044587;28;20733;-80
2022/08/07 07:52:45;;;;;;;4.38;2.08;;;;;;;17.68;59.19;100816.38;5045621;28;20451;-80
2022/08/07 07:55:12;;;;;;;5.55;2.63;;;;;;;17.69;59.02;100813.34;5045875;28;20398;-81
2022/08/07 07:57:39;;;;;;;7.05;3.50;;;;;;;17.78;58.92;100801.69;5046454;28;20037;-84
2022/08/07 08:00:06;;;;;;;7.95;3.55;;;;;;;17.85;57.83;100803.00;5044369;28;20037;-84
2022/08/07 08:02:33;;;;;;;6.35;3.05;;;;;;;17.95;56.82;100801.28;5046998;28;20400;-84
2022/08/07 08:05:03;;;;;;;17.48;2.88;;;;;;;18.01;56.91;100797.34;5045684;28;20044;-84
2022/08/07 08:07:30;;;;;;;5.85;2.60;;;;;;;18.02;57.04;100798.97;5046761;28;20110;-92
2022/08/07 08:09:56;;;;;;;4.05;2.03;;;;;;;18.12;56.24;100806.38;5045969;28;20052;-91
2022/08/07 08:12:22;;;;;;;5.18;2.10;;;;;;;18.22;55.78;100799.13;5047334;28;20032;-86
2022/08/07 08:14:48;;;;;;;3.03;1.40;;;;;;;18.30;55.79;100795.72;5046977;28;20053;-86
2022/08/07 08:17:14;;;;;;;5.72;1.67;;;;;;;18.34;56.04;100795.97;5046858;28;20056;-81
2022/08/07 08:19:40;;;;;;;6.13;1.40;;;;;;;18.33;54.65;100795.13;5042783;28;20054;-81
2022/08/07 08:27:41;;;;;;;7.20;1.63;;;;;;;18.43;51.43;100791.44;5047236;28;20048;-80
2022/08/07 08:30:10;;;;;;;3.40;1.40;;;;;;;18.60;50.35;100784.63;5043890;28;20044;-80
2022/08/07 08:32:40;;;;;;;3.72;1.63;;;;;;;18.66;53.11;100786.22;5045178;28;20491;-79
2022/08/07 08:35:09;;;;;;;2.72;1.10;;;;;;;18.68;50.06;100789.50;5044869;28;20032;-79
2022/08/07 08:37:36;;;;;;;3.67;0.90;;;;;;;18.88;47.79;100788.41;5045593;28;20483;-84
2022/08/07 08:40:08;;;;;;;7.18;1.60;;;;;;;18.93;48.55;100784.78;5045371;28;20147;-84
2022/08/07 08:42:42;;;;;;;3.28;1.20;;;;;;;18.94;49.60;100785.56;5046787;28;20033;-87
2022/08/07 08:45:38;;;;;;;1.77;0.60;;;;;;;18.97;49.83;100780.28;5046889;28;20120;-86
2022/08/07 08:48:31;;;;;;;3.28;0.93;;;;;;;19.08;50.05;100774.63;5046375;28;20057;-89
2022/08/07 08:51:24;;;;;;;1.20;0.70;;;;;;;19.17;47.74;100786.69;5046681;28;20032;-89
2022/08/07 08:54:06;;;;;;;4.63;1.38;;;;;;;19.27;46.50;100784.88;5025205;28;20234;-78
2022/08/07 08:56:36;;;;;;;4.90;0.95;;;;;;;19.27;47.73;100776.56;5031804;28;20584;-81
2022/08/07 08:59:08;;;;;;;2.60;0.70;;;;;;;19.52;46.49;100771.78;5043652;28;20040;-81
2022/08/07 09:01:59;;;;;;;3.60;0.60;;;;;;;19.50;46.04;100768.50;5045405;28;20033;-87
2022/08/07 09:04:50;;;;;;;2.45;0.90;;;;;;;19.65;46.78;100771.00;5046605;28;20037;-86
2022/08/07 09:07:21;;;;;;;1.48;0.90;;;;;;;19.76;44.83;100762.53;5047235;28;20036;-87
2022/08/07 09:09:57;;;;;;;6.85;0.65;;;;;;;19.89;42.80;100767.28;5044979;28;20527;-87
2022/08/07 09:12:47;;;;;;;1.52;0.77;;;;;;;19.92;46.08;100768.63;5046530;28;20044;-92
2022/08/07 09:15:27;;;;;;;2.38;0.50;;;;;;;20.20;43.45;100762.34;5045768;28;20049;-92
2022/08/07 09:18:18;;;;;;;5.13;0.68;;;;;;;20.16;43.22;100762.94;5045763;28;20039;-84
2022/08/07 09:21:28;;;;;;;1.80;0.50;;;;;;;20.18;43.11;100769.00;5043437;28;20101;-83
2022/08/07 09:24:25;;;;;;;1.05;0.40;;;;;;;20.62;41.59;100763.19;5046132;28;20118;-84
2022/08/07 09:27:09;;;;;;;0.70;0.35;;;;;;;20.53;39.23;100757.53;5049678;28;20460;-85
2022/08/07 09:29:34;;;;;;;;;;;;;;;20.76;39.56;100751.25;5049320;28;20143;-85
2022/08/07 09:32:06;;;;;;;1.38;0.38;;;;;;;20.63;40.62;100762.03;5050191;28;19921;-91
2022/08/07 09:34:54;;;;;;;1.70;0.98;;;;;;;20.88;40.66;100759.84;5049866;28;20055;-92
2022/08/07 09:37:32;;;;;;;2.13;0.90;;;;;;;20.81;40.19;100753.91;5039055;28;20045;-84
2022/08/07 09:40:11;;;;;;;1.27;0.57;;;;;;;20.91;40.00;100757.59;5048555;28;20036;-84
2022/08/07 09:42:51;;;;;;;12.20;1.08;;;;;;;20.83;39.82;100751.63;5050044;28;20028;-88
2022/08/07 09:45:41;;;;;;;1.85;0.47;;;;;;;20.94;40.05;100757.78;5051176;28;20178;-89
2022/08/07 09:48:31;;;;;;;1.20;0.65;;;;;;;20.98;41.48;100742.19;5050691;28;20033;-84
2022/08/07 09:51:35;;;;;;;1.05;0.63;;;;;;;21.13;40.06;100739.38;5044727;28;20045;-83
2022/08/07 09:54:02;;;;;;;1.73;0.77;;;;;;;21.05;39.47;100740.94;5028055;28;20536;-78
2022/08/07 09:56:53;;;;;;;0.60;0.38;;;;;;;21.08;38.95;100740.31;5027601;28;20274;-78
2022/08/07 09:59:39;;;;;;;0.52;0.43;;;;;;;21.18;38.79;100742.03;5036804;28;20124;-81
2022/08/07 10:02:29;;;;;;;1.33;0.65;;;;;;;21.14;38.84;100735.47;5048058;28;20575;-81
2022/08/07 10:05:12;;;;;;;0.80;0.50;;;;;;;21.31;38.73;100738.41;5047333;28;20036;-80
2022/08/07 10:08:14;;;;;;;0.90;0.40;;;;;;;21.37;38.33;100732.72;5048730;28;20033;-91
2022/08/07 10:11:06;;;;;;;2.60;0.57;;;;;;;21.79;38.32;100732.47;5047610;28;20036;-91
2022/08/07 10:13:57;;;;;;;0.88;0.50;;;;;;;21.55;38.99;100726.16;5047038;28;20302;-78
2022/08/07 10:16:56;;;;;;;0.95;0.55;;;;;;;21.47;39.05;100726.91;5046914;28;20032;-78
2022/08/07 10:19:44;;;;;;;1.67;0.40;;;;;;;21.34;38.76;100717.50;5046587;28;20107;-82
2022/08/07 10:22:54;;;;;;;3.38;0.60;;;;;;;21.41;38.68;100730.94;5048112;28;20033;-80
2022/08/07 10:25:53;;;;;;;2.17;0.77;;;;;;;21.50;37.90;100719.94;5046956;28;20040;-81
2022/08/07 10:28:32;;;;;;;2.58;1.67;;;;;;;21.51;36.85;100719.59;5047709;28;20040;-84
2022/08/07 10:31:16;;;;;;;1.67;0.57;;;;;;;21.51;38.10;100719.59;5047931;28;20127;-84
2022/08/07 10:34:06;;;;;;;1.80;0.40;;;;;;;21.63;38.15;100715.41;5049129;28;20036;-86
2022/08/07 10:36:46;;;;;;;0.77;0.45;;;;;;;21.61;38.10;100714.91;5048011;28;20041;-86
2022/08/07 10:39:54;;;;;;;2.65;0.30;;;;;;;21.50;35.86;100711.59;5046180;28;20049;-84
2022/08/07 10:42:38;;;;;;;1.23;0.57;;;;;;;21.82;37.64;100709.66;5041706;28;20040;-86
2022/08/07 10:45:29;;;;;;;0.85;0.30;;;;;;;21.64;35.88;100708.75;5046229;28;20505;-86
2022/08/07 10:48:00;;;;;;;0.93;0.40;;;;;;;21.94;35.04;100709.09;5047254;28;20048;-88
2022/08/07 10:50:32;;;;;;;0.93;0.20;;;;;;;22.12;36.40;100700.81;5040604;28;20144;-87
2022/08/07 10:53:08;;;;;;;4.57;1.33;;;;;;;22.30;35.09;100698.09;5049076;28;20548;-86
2022/08/07 10:55:49;;;;;;;1.75;0.70;;;;;;;22.09;36.09;100701.47;5048152;28;20480;-86
2022/08/07 10:58:46;;;;;;;0.90;0.40;;;;;;;21.86;35.68;100698.75;5046270;28;20052;-82
2022/08/07 11:01:30;;;;;;;0.47;0.30;;;;;;;21.92;35.17;100684.44;5026248;28;20100;-82
2022/08/07 11:04:25;;;;;;;1.50;0.57;;;;;;;21.95;35.77;100694.06;5028678;28;20127;-93
2022/08/07 11:06:59;;;;;;;2.05;0.70;;;;;;;22.02;36.32;100688.06;5029224;28;20483;-87
2022/08/07 11:09:30;;;;;;;0.45;0.30;;;;;;;22.36;35.04;100674.59;5038173;28;20547;-87
2022/08/07 11:12:01;;;;;;;2.38;0.70;;;;;;;22.41;35.56;100671.69;5048915;28;20033;-92
2022/08/07 11:14:37;;;;;;;0.40;0.40;;;;;;;22.10;36.17;100670.63;5048668;28;20082;-93
2022/08/07 11:17:16;;;;;;;9.40;0.82;;;;;;;22.51;36.81;100665.81;5045538;28;20049;-82
2022/08/07 11:19:57;;;;;;;2.60;0.40;;;;;;;22.94;35.80;100657.81;5042514;28;20507;-81
2022/08/07 11:22:39;;;;;;;2.83;0.50;;;;;;;22.78;36.03;100651.16;5031465;28;20033;-86
2022/08/07 11:25:11;;;;;;;1.35;0.43;;;;;;;22.62;36.87;100659.91;5030983;28;20048;-86
2022/08/07 11:27:56;;;;;;;0.98;0.50;;;;;;;22.55;37.62;100654.03;5039298;28;20045;-82
2022/08/07 11:30:27;;;;;;;0.85;0.50;;;;;;;22.51;36.97;100665.00;5046521;28;20025;-83
2022/08/07 11:33:09;;;;;;;2.90;0.55;;;;;;;22.63;36.37;100658.78;5046454;28;20511;-78
2022/08/07 11:35:53;;;;;;;1.45;0.77;;;;;;;22.63;35.68;100654.06;5046098;28;20025;-79
2022/08/07 11:38:51;;;;;;;1.42;0.52;;;;;;;22.58;35.74;100658.94;5044718;28;20504;-82
2022/08/07 11:41:22;;;;;;;1.48;0.60;;;;;;;22.51;35.64;100649.16;5025976;28;20069;-82
2022/08/07 11:44:07;;;;;;;1.05;0.60;;;;;;;22.80;35.23;100644.09;5048303;28;20049;-87
2022/08/07 11:46:45;;;;;;;2.55;0.70;;;;;;;22.81;35.69;100647.72;5048398;28;20472;-83
2022/08/07 11:49:48;;;;;;;1.75;0.50;;;;;;;23.13;36.06;100642.78;5044383;28;20044;-81
2022/08/07 11:52:44;;;;;;;1.55;0.73;;;;;;;22.90;35.23;100648.53;5045886;28;20036;-81